** WELKOM OP ONZE WEBSITE MET ACTUELE WEERDATA VANUIT IZEGEM **
Het weer levert geen direct gevaar op.    Er zijn geen waarschuwingen afgegeven.

Weercam te Izegem Meer informatie Weercam te Izegem


Lokaal brand risico:
FWI


Regionaal brand risico: Meer informatie


Steun ons initiatief via een kleine donatie!



METAR rapporten vliegvelden

   
EBOS - Oostende Airport, Belgium
Afstand tot: NW 39 km
Gewijzigd: 18-12-2018 21:50
Helder  
Helder  
   Wind: Zuiden 24.1 km/h
Wind: Zuiden 24.1 km/h
Temperatuur: 7°C
Voelt als: 3°C
Dauwpunt: 2°C
Vochtigheid: 71%
Barometer: 1008 hPa
Zicht: meer dan 10 km
Bewolking: Helder ft
EBOS 182050Z 17013KT CAVOK 07/02 Q1008 TEMPO 17018G28KT
LFQQ - Lille/Lesquin, France
Afstand tot: Z 40 km
Gewijzigd: 18-12-2018 22:00
Helder  
Helder  
   Wind: ZZO 24.1 km/h
Wind: ZZO 24.1 km/h
Temperatuur: 7°C
Voelt als: 3°C
Dauwpunt: 2°C
Vochtigheid: 71%
Barometer: 1009 hPa
Zicht: meer dan 10 km
Bewolking: Helder ft
LFQQ 182100Z AUTO 16013KT CAVOK 07/02 Q1009 TEMPO 16017G27KT BECMG 4000 RA OVC013
EBFN - Koksijde (bel-Af, Belgium
Afstand tot: WNW 43 km
Gewijzigd: 18-12-2018 21:55
Bewolking  
Bewolking  
   Wind: Zuiden 24.1 km/h
Wind: Zuiden 24.1 km/h
Temperatuur: 7°C
Voelt als: 3°C
Dauwpunt: 3°C
Vochtigheid: 76%
Barometer: 1008 hPa
Bewolking: Overcast
Zicht: meer dan 10 km
Bewolking: Licht bewolkt 3500 ft,
Bewolking 6300 ft
EBFN 182055Z AUTO 17013KT 9999 FEW035/// OVC063/// 07/03 Q1008 BLU
EBCV - Chievres Ab, Belgium
Afstand tot: ZO 59 km
Gewijzigd: 18-12-2018 21:55
Bewolking  
Bewolking  
   Wind: ZZO 22.2 km/h
Wind: ZZO 22.2 km/h
Temperatuur: 7°C
Voelt als: 3°C
Dauwpunt: 1°C
Vochtigheid: 66%
Barometer: 1010 hPa
Bewolking: Overcast
Zicht: meer dan 10 km
Bewolking: Bewolking 11000 ft
EBCV 182055Z AUTO 16012KT 9999 OVC110/// 07/01 Q1010 BLU
EHFS - Vlissingen, Netherlands
Afstand tot: NNO 65 km
Gewijzigd: 18-12-2018 21:55
Gedeeltelijk bewolkt  
Gedeeltelijk bewolkt  
   Wind: ZZO 33.3 km/h
Wind: ZZO 33.3 km/h
Temperatuur: 7°C
Voelt als: 2°C
Dauwpunt: 3°C
Vochtigheid: 76%
Barometer: 1008 hPa
Bewolking: Partly Cloudy
Zicht: meer dan 10 km
Bewolking: Gedeeltelijk bewolkt ft
EHFS 182055Z AUTO 16018KT 9999 NSC 07/03 Q1008 W///H///
EBBR - Brussels Nationa, Belgium
Afstand tot: O 91 km
Gewijzigd: 18-12-2018 21:50
Helder  
Helder  
   Wind: Zuiden 22.2 km/h
Wind: Zuiden 22.2 km/h
Temperatuur: 7°C
Voelt als: 3°C
Dauwpunt: 1°C
Vochtigheid: 66%
Barometer: 1010 hPa
Zicht: meer dan 10 km
Bewolking: Helder ft
EBBR 182050Z 18012KT CAVOK 07/01 Q1010 NOSIG
EBAW - Antwerp/Deurne, Belgium
Afstand tot: ONO 94 km
Gewijzigd: 18-12-2018 21:50
Helder  
Helder  
   Wind: ZZO 18.5 km/h
Wind: ZZO 18.5 km/h
Temperatuur: 7°C
Voelt als: 4°C
Dauwpunt: 1°C
Vochtigheid: 66%
Barometer: 1010 hPa
Zicht: meer dan 10 km
Bewolking: Helder ft
EBAW 182050Z 16010KT CAVOK 07/01 Q1010 NOSIG
EHWO - Woensdrecht Rnla, Netherlands
Afstand tot: NO 98 km
Gewijzigd: 18-12-2018 21:55
Grotendeels bewolkt  
Grotendeels bewolkt  
   Wind: ZZO 13 km/h
Wind: ZZO 13 km/h
Temperatuur: 7°C
Voelt als: 4°C
Dauwpunt: 2°C
Vochtigheid: 71%
Barometer: 1010 hPa
Bewolking: Mostly Cloudy
Zicht: meer dan 10 km
Bewolking: Licht bewolkt 8000 ft,
Gedeeltelijk bewolkt 8500 ft,
Grotendeels bewolkt 9100 ft
EHWO 182055Z AUTO 15007KT 090V210 9999 FEW080 SCT085 BKN091 07/02 Q1010 BLU
EBCI - Charleroi/Gossel, Belgium
Afstand tot: OZO 102 km
Gewijzigd: 18-12-2018 21:50
Helder  
Helder  
   Wind: ZZO 24.1 km/h<br />Gust to 24.1 km/h
Wind: ZZO 24.1 km/h
Gust to 24.1 km/h
Temperatuur: 6°C
Voelt als: 2°C
Dauwpunt: 0°C
Vochtigheid: 66%
Barometer: 1011 hPa
Zicht: meer dan 10 km
Bewolking: Helder ft
EBCI 182050Z 16013G23KT 140V200 CAVOK 06/00 Q1011 NOSIG

Script ontwikkeld door  Saratoga-weather.org Aangepast voor de template door  Weerstation Leuven